createdAt,value
2018-03-16T00:02:26.632Z,99938.80
2018-03-16T00:04:54.977Z,99929.64
2018-03-16T00:07:23.297Z,99916.56
2018-03-16T00:09:52.415Z,99930.05
2018-03-16T00:12:20.728Z,99933.56
2018-03-16T00:14:49.454Z,99940.09
2018-03-16T00:17:17.784Z,99940.96
2018-03-16T00:19:46.851Z,99944.45
2018-03-16T00:22:22.891Z,99941.42
2018-03-16T00:24:51.999Z,99943.16
2018-03-16T00:27:21.083Z,99942.70
2018-03-16T00:29:49.378Z,99944.89
2018-03-16T00:32:17.722Z,99956.62
2018-03-16T00:34:46.149Z,99946.20
2018-03-16T00:37:14.895Z,99948.81
2018-03-16T00:39:44.012Z,99953.17
2018-03-16T00:42:12.311Z,99952.73
2018-03-16T00:44:40.705Z,99940.95
2018-03-16T00:47:09.015Z,99941.84
2018-03-16T00:49:37.358Z,99950.56
2018-03-16T00:52:05.700Z,99950.51
2018-03-16T00:54:34.048Z,99938.35
2018-03-16T00:57:02.342Z,99941.42
2018-03-16T00:59:31.456Z,99930.94
2018-03-16T01:01:59.772Z,99932.27
2018-03-16T01:04:28.107Z,99933.14
2018-03-16T01:06:56.414Z,99931.83
2018-03-16T01:09:24.746Z,99927.48
2018-03-16T01:11:53.854Z,99925.32
2018-03-16T01:14:22.147Z,99922.67
2018-03-16T01:16:51.272Z,99914.86
2018-03-16T01:19:19.624Z,99922.25
2018-03-16T01:21:47.934Z,99923.13
2018-03-16T01:24:16.348Z,99924.87
2018-03-16T01:26:45.417Z,99931.86
2018-03-16T01:29:13.732Z,99921.83
2018-03-16T01:31:42.077Z,99930.53
2018-03-16T01:34:11.158Z,99921.84
2018-03-16T01:36:39.493Z,99920.54
2018-03-16T01:39:07.831Z,99919.20
2018-03-16T01:41:36.180Z,99908.77
2018-03-16T01:44:04.516Z,99913.13
2018-03-16T01:46:32.891Z,99911.38
2018-03-16T01:49:01.210Z,99909.63
2018-03-16T01:51:29.514Z,99905.70
2018-03-16T01:53:57.863Z,99905.72
2018-03-16T01:56:26.175Z,99902.26
2018-03-16T01:58:55.276Z,99912.27
2018-03-16T02:01:24.349Z,99903.55
2018-03-16T02:03:52.693Z,99910.11
2018-03-16T02:06:22.057Z,99910.11
2018-03-16T02:08:51.167Z,99897.48
2018-03-16T02:11:19.463Z,99908.78
2018-03-16T02:13:47.813Z,99903.14
2018-03-16T02:16:16.116Z,99902.70
2018-03-16T02:18:44.471Z,99906.18
2018-03-16T02:21:14.274Z,99900.52
2018-03-16T02:23:43.382Z,99914.89
2018-03-16T02:26:11.689Z,99907.92
2018-03-16T02:28:40.039Z,99907.50
2018-03-16T02:31:08.492Z,99899.66
2018-03-16T02:33:37.584Z,99904.44
2018-03-16T02:36:06.682Z,99892.27
2018-03-16T02:38:35.764Z,99889.20
2018-03-16T02:41:04.893Z,99890.96
2018-03-16T02:43:33.190Z,99887.04
2018-03-16T02:46:01.541Z,99896.61
2018-03-16T02:48:29.859Z,99884.00
2018-03-16T02:50:58.185Z,99899.23
2018-03-16T02:53:27.294Z,99886.17
2018-03-16T02:55:55.603Z,99892.25
2018-03-16T02:58:23.951Z,99894.42
2018-03-16T03:00:52.302Z,99895.76
2018-03-16T03:03:21.382Z,99892.25
2018-03-16T03:05:49.703Z,99897.06
2018-03-16T03:08:18.209Z,99904.00
2018-03-16T03:10:46.558Z,99911.42
2018-03-16T03:13:14.916Z,99918.81
2018-03-16T03:15:44.145Z,99907.50
2018-03-16T03:18:12.618Z,99911.42
2018-03-16T03:20:40.926Z,99917.95
2018-03-16T03:23:09.255Z,99922.72
2018-03-16T03:25:38.511Z,99920.53
2018-03-16T03:28:06.843Z,99919.23
2018-03-16T03:30:35.151Z,99919.66
2018-03-16T03:33:03.573Z,99918.80
2018-03-16T03:35:32.675Z,99917.92
2018-03-16T03:38:01.772Z,99916.18
2018-03-16T03:40:30.890Z,99911.82
2018-03-16T03:43:00.229Z,99914.45
2018-03-16T03:45:28.631Z,99914.44
2018-03-16T03:47:56.930Z,99923.56
2018-03-16T03:50:26.063Z,99914.00
2018-03-16T03:52:54.382Z,99913.53
2018-03-16T03:55:22.813Z,99905.28
2018-03-16T03:57:51.392Z,99910.05
2018-03-16T04:00:20.474Z,99903.97
2018-03-16T04:02:48.849Z,99893.95
2018-03-16T04:05:18.009Z,99901.77
2018-03-16T04:07:46.406Z,99892.63
2018-03-16T04:10:16.598Z,99898.70
2018-03-16T04:12:44.969Z,99889.58
2018-03-16T04:15:13.411Z,99897.41
2018-03-16T04:17:41.751Z,99885.23
2018-03-16T04:20:11.022Z,99884.37
2018-03-16T04:22:39.360Z,99890.88
2018-03-16T04:25:07.696Z,99889.17
2018-03-16T04:27:36.229Z,99890.89
2018-03-16T04:30:04.606Z,99909.16
2018-03-16T04:32:32.944Z,99903.05
2018-03-16T04:35:01.305Z,99902.18
2018-03-16T04:37:29.702Z,99880.80
2018-03-16T04:39:58.786Z,99898.23
2018-03-16T04:42:27.125Z,99899.09
2018-03-16T04:44:56.190Z,99897.35
2018-03-16T04:47:24.650Z,99905.62
2018-03-16T04:49:53.056Z,99901.28
2018-03-16T04:52:21.802Z,99899.97
2018-03-16T04:54:51.046Z,99904.31
2018-03-16T04:57:19.440Z,99904.32
2018-03-16T04:59:47.819Z,99909.09
2018-03-16T05:02:16.236Z,99912.58
2018-03-16T05:04:45.378Z,99909.95
2018-03-16T05:07:15.250Z,99909.95
2018-03-16T05:09:43.743Z,99914.72
2018-03-16T05:12:12.250Z,99915.16
2018-03-16T05:14:40.945Z,99919.52
2018-03-16T05:17:09.359Z,99909.97
2018-03-16T05:19:37.784Z,99913.00
2018-03-16T05:22:06.966Z,99919.56
2018-03-16T05:24:36.085Z,99913.42
2018-03-16T05:27:04.446Z,99909.07
2018-03-16T05:29:33.574Z,99910.39
2018-03-16T05:32:01.902Z,99914.70
2018-03-16T05:34:31.034Z,99902.52
2018-03-16T05:36:59.332Z,99919.94
2018-03-16T05:39:27.690Z,99912.09
2018-03-16T05:41:55.996Z,99915.14
2018-03-16T05:44:24.334Z,99915.58
2018-03-16T05:46:52.932Z,99905.16
2018-03-16T05:49:21.250Z,99903.89
2018-03-16T05:51:49.592Z,99889.98
2018-03-16T05:54:17.939Z,99909.45
2018-03-16T05:56:47.073Z,99902.95
2018-03-16T05:59:15.399Z,99905.55
2018-03-16T06:01:44.510Z,99897.72
2018-03-16T06:04:13.594Z,99904.72
2018-03-16T06:06:42.862Z,99898.65
2018-03-16T06:09:11.944Z,99903.40
2018-03-16T06:11:40.304Z,99895.17
2018-03-16T06:14:08.659Z,99909.53
2018-03-16T06:16:37.022Z,99902.08
2018-03-16T06:19:06.091Z,99932.50
2018-03-16T06:21:34.851Z,99920.30
2018-03-16T06:24:03.179Z,99909.02
2018-03-16T06:26:31.538Z,99911.58
2018-03-16T06:28:59.898Z,99906.41
2018-03-16T06:31:28.284Z,99913.40
2018-03-16T06:33:56.790Z,99916.86
2018-03-16T06:36:25.145Z,99921.19
2018-03-16T06:38:53.497Z,99909.42
2018-03-16T06:41:21.824Z,99907.69
2018-03-16T06:43:50.184Z,99906.38
2018-03-16T06:46:18.536Z,99905.06
2018-03-16T06:48:46.897Z,99902.00
2018-03-16T06:51:15.305Z,99891.15
2018-03-16T06:53:43.662Z,99901.59
2018-03-16T06:56:12.955Z,99910.33
2018-03-16T06:58:41.303Z,99911.14
2018-03-16T07:01:09.668Z,99912.86
2018-03-16T07:03:38.039Z,99923.77
2018-03-16T07:06:08.027Z,99926.30
2018-03-16T07:08:37.159Z,99918.08
2018-03-16T07:11:05.505Z,99912.83
2018-03-16T07:13:33.875Z,99916.77
2018-03-16T07:16:02.631Z,99918.95
2018-03-16T07:18:31.048Z,99915.01
2018-03-16T07:21:01.477Z,99916.80
2018-03-16T07:23:30.562Z,99917.70
2018-03-16T07:25:58.919Z,99915.03
2018-03-16T07:28:28.012Z,99925.41
2018-03-16T07:30:57.242Z,99919.75
2018-03-16T07:33:25.567Z,99924.98
2018-03-16T07:35:54.692Z,99931.94
2018-03-16T07:38:23.027Z,99932.37
2018-03-16T07:40:52.613Z,99941.48
2018-03-16T07:43:22.341Z,99941.05
2018-03-16T07:45:57.764Z,99942.86
2018-03-16T07:48:26.145Z,99949.82
2018-03-16T07:50:54.609Z,99944.63
2018-03-16T07:53:22.955Z,99931.15
2018-03-16T07:55:51.290Z,99936.84
2018-03-16T07:58:20.427Z,99933.77
2018-03-16T08:00:50.265Z,99936.77
2018-03-16T08:03:18.625Z,99929.75
2018-03-16T08:05:46.986Z,99938.43
2018-03-16T08:08:15.333Z,99948.41
2018-03-16T08:10:44.458Z,99947.59
2018-03-16T08:13:13.205Z,99954.95
2018-03-16T08:15:41.567Z,99948.47
2018-03-16T08:18:09.897Z,99945.97
2018-03-16T08:20:38.256Z,99958.00
2018-03-16T08:23:07.333Z,99951.53
2018-03-16T08:25:35.674Z,99964.94
2018-03-16T08:28:04.046Z,99966.63
2018-03-16T08:30:32.364Z,99955.91
2018-03-16T08:33:00.718Z,99958.48
2018-03-16T08:35:29.076Z,99952.91
2018-03-16T08:37:57.411Z,99953.28
2018-03-16T08:40:26.549Z,99963.69
2018-03-16T08:42:54.880Z,99977.70
2018-03-16T08:45:24.000Z,99963.29
2018-03-16T08:47:52.451Z,99966.34
2018-03-16T08:50:20.824Z,99865.27
2018-03-16T08:52:49.165Z,99970.31
2018-03-16T08:55:18.381Z,99969.92
2018-03-16T08:57:46.732Z,99969.01
2018-03-16T09:00:15.072Z,99960.27
2018-03-16T09:02:44.157Z,99965.95
2018-03-16T09:05:12.549Z,99972.84
2018-03-16T09:07:42.033Z,99967.73
2018-03-16T09:10:10.356Z,99968.59
2018-03-16T09:12:38.822Z,99964.14
2018-03-16T09:15:07.775Z,99967.61
2018-03-16T09:17:36.678Z,99981.99
2018-03-16T09:20:05.798Z,99966.77
2018-03-16T09:22:34.099Z,99976.84
2018-03-16T09:25:03.223Z,99981.09
2018-03-16T09:27:31.541Z,99977.20
2018-03-16T09:30:00.656Z,99984.59
2018-03-16T09:32:29.316Z,99971.12
2018-03-16T09:34:57.652Z,99973.39
2018-03-16T09:37:25.988Z,99974.67
2018-03-16T09:39:54.516Z,99979.42
2018-03-16T09:42:22.992Z,99982.05
2018-03-16T09:44:51.374Z,99985.56
2018-03-16T09:47:19.696Z,99983.91
2018-03-16T09:49:48.807Z,99992.13
2018-03-16T09:52:17.156Z,99997.66
2018-03-16T09:55:04.006Z,100005.52
2018-03-16T09:57:32.380Z,99998.08
2018-03-16T10:00:00.688Z,99992.81
2018-03-16T10:02:29.048Z,99992.02
2018-03-16T10:04:57.375Z,99991.54
2018-03-16T10:07:26.484Z,99995.14
2018-03-16T10:09:54.844Z,99980.50
2018-03-16T10:12:23.933Z,99980.44
2018-03-16T10:14:52.537Z,99977.75
2018-03-16T10:17:21.615Z,99982.09
2018-03-16T10:19:49.972Z,99975.95
2018-03-16T10:22:18.344Z,99967.84
2018-03-16T10:24:46.728Z,99963.92
2018-03-16T10:27:15.053Z,99964.90
2018-03-16T10:29:43.365Z,99965.76
2018-03-16T10:32:11.716Z,99964.39
2018-03-16T10:34:40.163Z,99973.92
2018-03-16T10:37:09.362Z,99969.94
2018-03-16T10:39:38.490Z,99964.69
2018-03-16T10:42:06.825Z,99969.51
2018-03-16T10:44:35.181Z,99953.44
2018-03-16T10:47:03.501Z,99958.52
2018-03-16T10:49:32.615Z,99963.44
2018-03-16T10:52:00.924Z,99959.60
2018-03-16T10:54:29.240Z,99970.72
2018-03-16T10:56:58.374Z,99963.34
2018-03-16T10:59:26.682Z,99961.30
2018-03-16T11:01:55.905Z,99975.09
2018-03-16T11:04:29.890Z,99971.13
2018-03-16T11:07:03.772Z,99982.88
2018-03-16T11:09:32.101Z,99984.60
2018-03-16T11:12:00.432Z,99974.75
2018-03-16T11:14:28.796Z,99988.11
2018-03-16T11:16:57.115Z,99984.64
2018-03-16T11:19:25.431Z,99977.27
2018-03-16T11:21:53.772Z,99984.16
2018-03-16T11:24:22.088Z,99974.54
2018-03-16T11:26:50.503Z,99972.48
2018-03-16T11:29:18.814Z,99975.09
2018-03-16T11:31:48.659Z,99975.58
2018-03-16T11:34:17.141Z,99982.36
2018-03-16T11:36:45.482Z,99976.92
2018-03-16T11:39:14.775Z,99979.55
2018-03-16T11:41:43.948Z,99981.68
2018-03-16T11:44:12.331Z,99992.87
2018-03-16T11:46:41.671Z,99988.91
2018-03-16T11:49:10.976Z,99985.02
2018-03-16T11:51:41.334Z,99989.22
2018-03-16T11:54:12.658Z,99984.89
2018-03-16T11:56:41.894Z,99942.13
2018-03-16T11:59:10.275Z,99992.27
2018-03-16T12:01:39.011Z,99987.53
2018-03-16T12:04:08.722Z,99980.06
2018-03-16T12:06:38.300Z,99982.17
2018-03-16T12:09:06.618Z,99983.09
2018-03-16T12:11:35.137Z,99978.67
2018-03-16T12:14:03.514Z,99977.31
2018-03-16T12:16:31.877Z,99978.03
2018-03-16T12:19:00.231Z,99984.03
2018-03-16T12:21:29.379Z,99994.42
2018-03-16T12:23:57.830Z,99996.22
2018-03-16T12:26:27.062Z,99993.19
2018-03-16T12:28:55.457Z,99987.00
2018-03-16T12:31:24.578Z,99946.32
2018-03-16T12:33:52.880Z,99994.66
2018-03-16T12:36:23.370Z,99995.88
2018-03-16T12:38:52.609Z,100002.20
2018-03-16T12:41:21.728Z,99994.53
2018-03-16T12:43:50.791Z,100001.85
2018-03-16T12:46:19.198Z,100003.58
2018-03-16T12:48:48.526Z,99992.61
2018-03-16T12:51:17.683Z,100006.87
2018-03-16T12:53:46.385Z,99983.78
2018-03-16T12:56:15.783Z,99995.88
2018-03-16T12:58:44.177Z,100006.49
2018-03-16T13:01:12.583Z,100006.84
2018-03-16T13:03:41.694Z,99998.02
2018-03-16T13:06:11.222Z,100014.31
2018-03-16T13:08:39.579Z,100008.51
2018-03-16T13:11:07.968Z,100006.95
2018-03-16T13:13:36.353Z,100005.94
2018-03-16T13:16:04.735Z,100011.41
2018-03-16T13:18:33.072Z,100014.69
2018-03-16T13:21:02.222Z,100020.13
2018-03-16T13:23:30.542Z,100018.54
2018-03-16T13:25:59.632Z,100015.31
2018-03-16T13:28:29.109Z,100017.36
2018-03-16T13:30:58.651Z,100013.91
2018-03-16T13:33:26.927Z,100018.66
2018-03-16T13:35:55.310Z,100010.13
2018-03-16T13:38:23.683Z,100015.14
2018-03-16T13:40:53.562Z,100013.98
2018-03-16T13:43:21.947Z,100023.61
2018-03-16T13:45:50.288Z,100023.03
2018-03-16T13:48:18.607Z,100032.15
2018-03-16T13:50:46.954Z,100030.89
2018-03-16T13:53:15.286Z,100024.94
2018-03-16T13:55:44.421Z,100033.95
2018-03-16T13:58:12.776Z,100038.20
2018-03-16T14:00:41.097Z,100034.69
2018-03-16T14:03:09.478Z,100033.80
2018-03-16T14:05:37.787Z,100040.82
2018-03-16T14:08:06.890Z,100036.43
2018-03-16T14:10:36.638Z,100051.83
2018-03-16T14:13:04.965Z,100047.78
2018-03-16T14:15:34.082Z,100048.72
2018-03-16T14:18:02.394Z,100046.17
2018-03-16T14:20:30.754Z,100041.46
2018-03-16T14:22:59.084Z,100043.38
2018-03-16T14:25:27.441Z,100048.71
2018-03-16T14:27:55.805Z,100045.09
2018-03-16T14:30:24.130Z,100047.19
2018-03-16T14:32:53.232Z,100042.81
2018-03-16T14:35:21.602Z,100056.73
2018-03-16T14:37:49.981Z,100056.20
2018-03-16T14:40:18.586Z,100053.25
2018-03-16T14:42:46.950Z,100055.45
2018-03-16T14:45:15.302Z,100049.37
2018-03-16T14:47:43.627Z,100064.45
2018-03-16T14:50:11.979Z,100063.94
2018-03-16T14:52:40.300Z,100071.30
2018-03-16T14:55:09.309Z,100064.98
2018-03-16T14:57:37.626Z,100070.14
2018-03-16T15:00:06.131Z,100071.88
2018-03-16T15:02:34.473Z,100074.93
2018-03-16T15:05:03.599Z,100077.02
2018-03-16T15:07:32.177Z,100075.00
2018-03-16T15:10:00.681Z,100082.25
2018-03-16T15:12:29.942Z,100080.44
2018-03-16T15:15:01.474Z,100083.86
2018-03-16T15:17:29.797Z,100078.45
2018-03-16T15:19:59.521Z,100081.69
2018-03-16T15:22:27.822Z,100081.22
2018-03-16T15:24:56.123Z,100079.44
2018-03-16T15:27:27.262Z,100090.36
2018-03-16T15:29:56.725Z,100085.95
2018-03-16T15:32:25.503Z,100077.16
2018-03-16T15:34:53.847Z,100084.56
2018-03-16T15:37:22.991Z,100075.86
2018-03-16T15:39:52.158Z,100085.88
2018-03-16T15:42:20.526Z,100095.25
2018-03-16T15:44:48.977Z,100105.62
2018-03-16T15:47:18.141Z,100109.91
2018-03-16T15:49:46.915Z,100110.36
2018-03-16T15:52:15.298Z,100103.41
2018-03-16T15:54:43.687Z,100119.50
2018-03-16T15:57:12.028Z,100113.42
2018-03-16T15:59:43.320Z,100114.73
2018-03-16T16:02:12.365Z,100116.50
2018-03-16T16:04:41.475Z,100126.34
2018-03-16T16:07:10.165Z,100125.58
2018-03-16T16:09:41.859Z,100120.80
2018-03-16T16:12:10.237Z,100127.13
2018-03-16T16:14:38.759Z,100131.37
2018-03-16T16:17:07.159Z,100129.89
2018-03-16T16:19:35.544Z,100141.36
2018-03-16T16:22:03.947Z,100143.89
2018-03-16T16:24:32.879Z,100148.30
2018-03-16T16:27:01.713Z,100144.20
2018-03-16T16:29:30.077Z,100154.08
2018-03-16T16:31:59.960Z,100153.50
2018-03-16T16:34:28.794Z,100154.78
2018-03-16T16:36:57.421Z,100159.42
2018-03-16T16:39:25.941Z,100174.75
2018-03-16T16:41:55.783Z,100163.39
2018-03-16T16:44:24.936Z,100167.73
2018-03-16T16:46:53.453Z,100164.72
2018-03-16T16:49:23.416Z,100181.05
2018-03-16T16:51:53.014Z,100176.73
2018-03-16T16:54:21.390Z,100173.23
2018-03-16T16:56:51.427Z,100178.81
2018-03-16T16:59:19.981Z,100180.44
2018-03-16T17:01:48.388Z,100184.24
2018-03-16T17:04:16.861Z,100187.28
2018-03-16T17:06:46.201Z,100190.47
2018-03-16T17:12:30.339Z,100206.27
2018-03-16T17:14:59.500Z,100180.41
2018-03-16T17:17:27.935Z,100216.95
2018-03-16T17:19:57.174Z,100204.39
2018-03-16T17:22:25.647Z,100197.28
2018-03-16T17:24:54.111Z,100224.09
2018-03-16T17:27:23.062Z,100228.02
2018-03-16T17:29:51.546Z,100222.26
2018-03-16T17:32:24.334Z,100218.45
2018-03-16T17:34:51.968Z,100226.59
2018-03-16T17:37:20.416Z,100229.98
2018-03-16T17:39:51.300Z,100234.77
2018-03-16T17:42:21.207Z,100233.77
2018-03-16T17:44:49.658Z,100239.36
2018-03-16T17:47:18.848Z,100238.92
2018-03-16T17:49:47.246Z,100242.86
2018-03-16T17:52:16.409Z,100251.06
2018-03-16T17:54:44.994Z,100253.18
2018-03-16T17:57:13.573Z,100260.07
2018-03-16T17:59:41.962Z,100253.22
2018-03-16T18:02:10.380Z,100265.64
2018-03-16T18:04:39.698Z,100257.37
2018-03-16T18:07:15.959Z,100263.41
2018-03-16T18:09:44.438Z,100262.19
2018-03-16T18:12:12.829Z,100261.08
2018-03-16T18:14:41.266Z,100269.72
2018-03-16T18:17:09.636Z,100269.95
2018-03-16T18:19:38.141Z,100268.02
2018-03-16T18:22:06.616Z,100284.83
2018-03-16T18:24:35.862Z,100280.79
2018-03-16T18:27:04.416Z,100279.89
2018-03-16T18:29:32.842Z,100274.64
2018-03-16T18:32:01.239Z,100287.51
2018-03-16T18:34:38.097Z,100284.20
2018-03-16T18:37:06.649Z,100294.37
2018-03-16T18:39:35.076Z,100298.70
2018-03-16T18:42:03.496Z,100313.88
2018-03-16T18:44:31.866Z,100294.24
2018-03-16T18:47:00.422Z,100302.20
2018-03-16T18:49:52.521Z,100308.92
2018-03-16T18:52:20.900Z,100307.15
2018-03-16T18:54:49.686Z,100316.44
2018-03-16T18:57:18.052Z,100317.55
2018-03-16T18:59:46.459Z,100320.95
2018-03-16T19:02:14.991Z,100317.98
2018-03-16T19:04:43.362Z,100325.15
2018-03-16T19:07:11.712Z,100340.91
2018-03-16T19:09:40.140Z,100341.11
2018-03-16T19:12:08.742Z,100341.73
2018-03-16T19:14:38.133Z,100329.98
2018-03-16T19:17:06.469Z,100331.89
2018-03-16T19:19:35.738Z,100299.67
2018-03-16T19:22:04.774Z,100357.87
2018-03-16T19:24:34.124Z,100349.00
2018-03-16T19:27:02.486Z,100346.98
2018-03-16T19:29:30.999Z,100348.73
2018-03-16T19:31:59.314Z,100347.84
2018-03-16T19:34:28.180Z,100346.92
2018-03-16T19:36:57.490Z,100348.30
2018-03-16T19:39:27.529Z,100344.55
2018-03-16T19:41:56.147Z,100355.19
2018-03-16T19:44:27.447Z,100353.02
2018-03-16T19:46:56.783Z,100354.50
2018-03-16T19:49:25.228Z,100353.95
2018-03-16T19:51:54.343Z,100351.31
2018-03-16T19:54:22.684Z,100356.43
2018-03-16T19:57:03.006Z,100356.95
2018-03-16T19:59:31.448Z,100369.89
2018-03-16T20:01:59.869Z,100366.32
2018-03-16T20:04:29.178Z,100365.84
2018-03-16T20:06:57.526Z,100377.00
2018-03-16T20:09:25.928Z,100376.48
2018-03-16T20:11:54.297Z,100365.30
2018-03-16T20:14:22.681Z,100374.39
2018-03-16T20:16:51.037Z,100382.10
2018-03-16T20:19:20.032Z,100393.17
2018-03-16T20:21:48.624Z,100374.04
2018-03-16T20:24:16.954Z,100383.09
2018-03-16T20:26:46.210Z,100385.95
2018-03-16T20:29:15.573Z,100384.94
2018-03-16T20:31:44.432Z,100380.61
2018-03-16T20:34:12.821Z,100372.63
2018-03-16T20:36:43.269Z,100391.98
2018-03-16T20:39:11.677Z,100385.57
2018-03-16T20:41:40.823Z,100394.21
2018-03-16T20:44:10.491Z,100385.66
2018-03-16T20:46:38.831Z,100390.68
2018-03-16T20:49:07.626Z,100405.85
2018-03-16T20:51:35.970Z,100391.18
2018-03-16T20:54:04.726Z,100402.41
2018-03-16T20:56:33.135Z,100399.58
2018-03-16T20:59:02.249Z,100403.03
2018-03-16T21:01:31.392Z,100400.44
2018-03-16T21:03:59.734Z,100404.47
2018-03-16T21:06:28.083Z,100409.75
2018-03-16T21:08:56.461Z,100401.05
2018-03-16T21:11:25.657Z,100411.59
2018-03-16T21:13:55.349Z,100404.58
2018-03-16T21:16:23.713Z,100416.80
2018-03-16T21:18:52.063Z,100410.59
2018-03-16T21:21:20.408Z,100417.12
2018-03-16T21:23:48.807Z,100418.34
2018-03-16T21:26:17.218Z,100424.55
2018-03-16T21:28:45.609Z,100416.70
2018-03-16T21:31:14.264Z,100423.64
2018-03-16T21:33:43.205Z,100429.80
2018-03-16T21:36:11.571Z,100418.62
2018-03-16T21:38:40.627Z,100438.42
2018-03-16T21:41:09.495Z,100429.02
2018-03-16T21:43:37.844Z,100439.97
2018-03-16T21:46:06.191Z,100436.86
2018-03-16T21:48:34.562Z,100428.25
2018-03-16T21:51:03.795Z,100448.05
2018-03-16T21:53:32.944Z,100449.61
2018-03-16T21:56:02.051Z,100446.22
2018-03-16T21:58:31.190Z,100448.16
2018-03-16T22:01:00.969Z,100462.22
2018-03-16T22:03:29.350Z,100463.28
2018-03-16T22:05:57.971Z,100457.84
2018-03-16T22:08:26.335Z,100466.42
2018-03-16T22:10:54.685Z,100469.50
2018-03-16T22:13:23.077Z,100466.91
2018-03-16T22:15:51.528Z,100471.64
2018-03-16T22:18:20.155Z,100473.75
2018-03-16T22:20:50.199Z,100478.17
2018-03-16T22:23:18.596Z,100484.03
2018-03-16T22:25:46.966Z,100480.55
2018-03-16T22:28:15.337Z,100485.60
2018-03-16T22:30:43.736Z,100476.16
2018-03-16T22:33:12.126Z,100474.80
2018-03-16T22:35:40.648Z,100480.39
2018-03-16T22:38:09.830Z,100487.28
2018-03-16T22:40:38.176Z,100477.58
2018-03-16T22:43:06.512Z,100490.50
2018-03-16T22:45:35.654Z,100494.30
2018-03-16T22:48:04.098Z,100501.68
2018-03-16T22:50:32.612Z,100501.42
2018-03-16T22:53:01.194Z,100496.73
2018-03-16T22:55:29.672Z,100499.05
2018-03-16T22:57:58.087Z,100503.30
2018-03-16T23:00:26.477Z,100508.25
2018-03-16T23:02:56.006Z,100516.95
2018-03-16T23:05:25.146Z,100502.83
2018-03-16T23:07:53.592Z,100511.91
2018-03-16T23:10:21.997Z,100526.98
2018-03-16T23:12:50.819Z,100516.06
2018-03-16T23:15:19.267Z,100490.94
2018-03-16T23:17:47.763Z,100516.66
2018-03-16T23:20:16.145Z,100530.38
2018-03-16T23:22:44.474Z,100534.08
2018-03-16T23:25:12.855Z,100528.44
2018-03-16T23:27:41.234Z,100538.77
2018-03-16T23:30:09.632Z,100524.09
2018-03-16T23:32:38.049Z,100519.30
2018-03-16T23:35:06.492Z,100522.49
2018-03-16T23:37:34.850Z,100518.14
2018-03-16T23:40:03.298Z,100512.30
2018-03-16T23:42:31.676Z,100522.80
2018-03-16T23:45:00.849Z,100524.92
2018-03-16T23:47:29.230Z,100523.38
2018-03-16T23:49:58.428Z,100530.56
2018-03-16T23:52:26.789Z,100541.16
2018-03-16T23:55:14.320Z,100530.51
2018-03-16T23:57:42.667Z,100545.28
